Time;durP1;ratioP1;P1;durP2;ratioP2;P2;SDS_P1;SDS_P2;PMS_P1;PMS_P2;Temp;Humidity;BMP_temperature;BMP_pressure;BME280_temperature;BME280_humidity;BME280_pressure;Samples;Min_cycle;Max_cycle;Signal;HPM_P1;HPM_P2
2021/01/09 00:01:48;;;;;;;;;;;3.30;99.90;;;;;;10408712;28;20020;-65
2021/01/09 00:06:51;;;;;;;;;;;3.20;99.90;;;;;;10410237;28;19929;-65
2021/01/09 00:11:52;;;;;;;;;;;3.30;99.90;;;;;;10410580;28;19972;-65
2021/01/09 00:16:53;;;;;;;;;;;3.40;99.90;;;;;;10408955;28;19979;-65
2021/01/09 00:21:55;;;;;;;;;;;3.40;99.90;;;;;;10408372;28;19931;-65
2021/01/09 00:26:56;;;;;;;;;;;3.40;99.90;;;;;;10424372;28;19979;-65
2021/01/09 00:31:57;;;;;;;;;;;3.30;99.90;;;;;;10408771;28;20590;-65
2021/01/09 00:36:59;;;;;;;;;;;3.30;99.90;;;;;;10408638;28;19925;-65
2021/01/09 00:42:01;;;;;;;;;;;3.20;99.90;;;;;;10407905;28;19925;-65
2021/01/09 00:47:02;;;;;;;;;;;3.30;99.90;;;;;;10407725;28;20415;-65
2021/01/09 00:52:04;;;;;;;;;;;3.20;99.90;;;;;;10408336;28;19925;-65
2021/01/09 00:57:05;;;;;;;;;;;3.30;99.90;;;;;;10408111;28;20159;-65
2021/01/09 01:02:08;;;;;;;;;;;3.30;99.90;;;;;;10407819;28;20433;-65
2021/01/09 01:07:09;;;;;;;;;;;3.40;99.90;;;;;;10407437;28;19929;-65
2021/01/09 01:12:11;;;;;;;;;;;3.40;99.90;;;;;;10406762;28;20374;-65
2021/01/09 01:17:12;;;;;;;;;;;3.30;99.90;;;;;;10406644;28;19939;-65
2021/01/09 01:22:14;;;;;;;;;;;3.40;99.90;;;;;;10421823;28;20008;-66
2021/01/09 01:27:15;;;;;;;;;;;3.50;99.90;;;;;;10406383;28;20353;-65
2021/01/09 01:32:16;;;;;;;;;;;3.50;99.90;;;;;;10406243;28;20425;-65
2021/01/09 01:37:17;;;;;;;;;;;3.60;99.90;;;;;;10406490;28;19944;-65
2021/01/09 01:42:19;;;;;;;;;;;3.40;99.90;;;;;;10406338;28;19925;-65
2021/01/09 01:47:20;;;;;;;;;;;3.30;99.90;;;;;;10405660;28;20043;-65
2021/01/09 01:52:22;;;;;;;;;;;3.30;99.90;;;;;;10405931;28;19929;-65
2021/01/09 01:57:23;;;;;;;;;;;3.30;99.90;;;;;;10405578;28;20047;-65
2021/01/09 02:02:24;;;;;;;;;;;3.20;99.90;;;;;;10420154;28;19976;-65
2021/01/09 02:07:28;;;;;;;;;;;3.30;99.90;;;;;;10405374;28;20467;-65
2021/01/09 02:12:32;;;;;;;;;;;3.30;99.90;;;;;;10400771;28;19980;-66
2021/01/09 02:17:35;;;;;;;;;;;3.30;99.90;;;;;;10403859;28;20700;-65
2021/01/09 02:22:41;;;;;;;;;;;3.30;99.90;;;;;;10412025;28;20700;-65
2021/01/09 02:27:42;;;;;;;;;;;3.40;99.90;;;;;;10403640;28;20844;-65
2021/01/09 02:33:00;;;;;;;;;;;3.40;99.90;;;;;;10402183;28;20009;-65
2021/01/09 02:38:02;;;;;;;;;;;3.40;99.90;;;;;;10403250;28;19929;-65
2021/01/09 02:43:03;;;;;;;;;;;3.40;99.90;;;;;;10401149;28;20024;-65
2021/01/09 02:48:05;;;;;;;;;;;3.30;99.90;;;;;;10403376;28;20016;-65
2021/01/09 02:53:06;;;;;;;;;;;3.40;99.90;;;;;;10402460;28;19978;-65
2021/01/09 02:58:07;;;;;;;;;;;3.40;99.90;;;;;;10402768;28;20034;-66
2021/01/09 03:03:09;;;;;;;;;;;3.30;99.90;;;;;;10422678;28;20353;-65
2021/01/09 03:08:10;;;;;;;;;;;3.40;99.90;;;;;;10411391;28;20301;-65
2021/01/09 03:13:11;;;;;;;;;;;3.40;99.90;;;;;;10411908;28;19928;-65
2021/01/09 03:18:13;;;;;;;;;;;3.40;99.90;;;;;;10410926;28;20514;-65
2021/01/09 03:23:14;;;;;;;;;;;3.30;99.90;;;;;;10411163;28;20286;-65
2021/01/09 03:28:16;;;;;;;;;;;3.30;99.90;;;;;;10411788;28;19975;-65
2021/01/09 03:33:17;;;;;;;;;;;3.30;99.90;;;;;;10413817;28;20389;-65
2021/01/09 03:38:18;;;;;;;;;;;3.30;99.90;;;;;;10419669;28;19960;-66
2021/01/09 03:43:19;;;;;;;;;;;3.30;99.90;;;;;;10419404;28;20032;-65
2021/01/09 03:48:21;;;;;;;;;;;3.20;99.90;;;;;;10419799;28;20003;-65
2021/01/09 03:53:22;;;;;;;;;;;3.20;99.90;;;;;;10419183;28;20433;-65
2021/01/09 03:58:23;;;;;;;;;;;3.20;99.90;;;;;;10419177;28;20008;-65
2021/01/09 04:03:25;;;;;;;;;;;3.20;99.90;;;;;;10415876;28;19961;-66
2021/01/09 04:08:26;;;;;;;;;;;3.20;99.90;;;;;;10413951;28;19956;-65
2021/01/09 04:13:27;;;;;;;;;;;3.10;99.90;;;;;;10411293;28;19925;-65
2021/01/09 04:18:29;;;;;;;;;;;3.20;99.90;;;;;;10410041;28;19974;-65
2021/01/09 04:23:31;;;;;;;;;;;3.10;99.90;;;;;;10410866;28;20372;-65
2021/01/09 04:28:32;;;;;;;;;;;3.00;99.90;;;;;;10410705;28;20696;-65
2021/01/09 04:33:34;;;;;;;;;;;3.00;99.90;;;;;;10410477;28;19929;-66
2021/01/09 04:38:35;;;;;;;;;;;2.80;99.90;;;;;;10410576;28;19925;-65
2021/01/09 04:43:37;;;;;;;;;;;2.80;99.90;;;;;;10409858;28;19975;-65
2021/01/09 04:48:38;;;;;;;;;;;2.80;99.90;;;;;;10410247;28;20067;-65
2021/01/09 04:53:40;;;;;;;;;;;2.90;99.90;;;;;;10409906;28;19932;-65
2021/01/09 04:58:41;;;;;;;;;;;2.90;99.90;;;;;;10409596;28;19925;-65
2021/01/09 05:03:48;;;;;;;;;;;3.00;99.90;;;;;;10409671;28;20016;-65
2021/01/09 05:08:49;;;;;;;;;;;3.10;99.90;;;;;;10409224;28;19925;-65
2021/01/09 05:13:50;;;;;;;;;;;3.10;99.90;;;;;;10409160;28;19973;-66
2021/01/09 05:18:52;;;;;;;;;;;3.20;99.90;;;;;;10409110;28;19968;-65
2021/01/09 05:23:57;;;;;;;;;;;3.20;99.90;;;;;;10408952;28;19933;-65
2021/01/09 05:29:00;;;;;;;;;;;3.30;99.90;;;;;;10408351;28;20003;-65
2021/01/09 05:34:03;;;;;;;;;;;3.30;99.90;;;;;;10408142;28;19932;-65
2021/01/09 05:39:04;;;;;;;;;;;3.30;99.90;;;;;;10408201;28;19925;-65
2021/01/09 05:44:06;;;;;;;;;;;3.40;99.90;;;;;;10407527;28;20019;-65
2021/01/09 05:49:08;;;;;;;;;;;3.40;99.90;;;;;;10407650;28;19956;-66
2021/01/09 05:54:09;;;;;;;;;;;3.40;99.90;;;;;;10407769;28;19965;-66
2021/01/09 05:59:11;;;;;;;;;;;3.40;99.90;;;;;;10405731;28;20297;-65
2021/01/09 06:04:20;;;;;;;;;;;3.40;99.90;;;;;;10407619;28;20412;-66
2021/01/09 06:09:25;;;;;;;;;;;3.30;99.90;;;;;;10406908;28;19926;-65
2021/01/09 06:14:27;;;;;;;;;;;3.40;99.90;;;;;;10406199;28;20340;-65
2021/01/09 06:19:28;;;;;;;;;;;3.40;99.90;;;;;;10406424;28;20003;-65
2021/01/09 06:24:30;;;;;;;;;;;3.40;99.90;;;;;;10406488;28;20542;-65
2021/01/09 06:29:34;;;;;;;;;;;3.40;99.90;;;;;;10406396;28;20383;-65
2021/01/09 06:34:38;;;;;;;;;;;3.50;99.90;;;;;;10406085;28;20361;-65
2021/01/09 06:39:39;;;;;;;;;;;3.50;99.90;;;;;;10406004;28;20012;-65
2021/01/09 06:44:47;;;;;;;;;;;3.60;99.90;;;;;;10405325;28;20344;-66
2021/01/09 06:49:49;;;;;;;;;;;3.50;99.90;;;;;;10405757;28;19979;-65
2021/01/09 06:54:50;;;;;;;;;;;3.50;99.90;;;;;;10404390;28;19964;-65
2021/01/09 06:59:52;;;;;;;;;;;3.40;99.90;;;;;;10404840;28;20016;-66
2021/01/09 07:04:54;;;;;;;;;;;3.50;99.90;;;;;;10405585;28;19977;-65
2021/01/09 07:10:13;;;;;;;;;;;3.50;99.90;;;;;;10404946;28;19925;-65
2021/01/09 07:15:15;;;;;;;;;;;3.50;99.90;;;;;;10404830;28;20008;-66
2021/01/09 07:20:18;;;;;;;;;;;3.50;99.90;;;;;;10404877;28;20015;-66
2021/01/09 07:25:34;;;;;;;;;;;3.50;99.90;;;;;;10404833;28;20457;-65
2021/01/09 07:30:37;;;;;;;;;;;3.50;99.90;;;;;;10404053;28;19929;-66
2021/01/09 07:35:42;;;;;;;;;;;3.50;99.90;;;;;;10405667;28;19971;-65
2021/01/09 07:40:50;;;;;;;;;;;3.40;99.90;;;;;;10404577;28;19976;-65
2021/01/09 07:45:52;;;;;;;;;;;3.40;99.90;;;;;;10404003;28;20285;-65
2021/01/09 07:50:53;;;;;;;;;;;3.50;99.90;;;;;;10404400;28;20023;-65
2021/01/09 07:55:55;;;;;;;;;;;3.60;99.90;;;;;;10403978;28;19925;-65
2021/01/09 08:00:56;;;;;;;;;;;3.70;99.90;;;;;;10402743;28;19929;-65
2021/01/09 08:05:58;;;;;;;;;;;3.70;99.90;;;;;;10403880;28;19929;-66
2021/01/09 08:11:04;;;;;;;;;;;3.80;99.90;;;;;;10404629;28;20023;-66
2021/01/09 08:16:05;;;;;;;;;;;3.90;99.90;;;;;;10404078;28;20373;-66
2021/01/09 08:21:07;;;;;;;;;;;4.00;99.90;;;;;;10407270;28;19932;-65
2021/01/09 08:26:11;;;;;;;;;;;4.10;99.90;;;;;;10411076;28;20027;-65
2021/01/09 08:31:12;;;;;;;;;;;4.20;99.90;;;;;;10410761;28;20017;-65
2021/01/09 08:36:17;;;;;;;;;;;4.30;99.90;;;;;;10410859;28;19947;-66
2021/01/09 08:41:18;;;;;;;;;;;4.60;99.90;;;;;;10410504;28;20023;-66
2021/01/09 08:46:19;;;;;;;;;;;4.60;99.90;;;;;;10409774;28;20308;-66
2021/01/09 08:51:22;;;;;;;;;;;4.50;99.90;;;;;;10410098;28;20374;-65
2021/01/09 08:56:24;;;;;;;;;;;4.50;99.90;;;;;;10409905;28;20491;-65
2021/01/09 09:01:27;;;;;;;;;;;4.50;99.90;;;;;;10409218;28;20389;-66
2021/01/09 09:06:29;;;;;;;;;;;4.40;99.90;;;;;;10409256;28;19925;-66
2021/01/09 09:11:31;;;;;;;;;;;4.40;99.90;;;;;;10409604;28;19972;-66
2021/01/09 09:16:36;;;;;;;;;;;4.30;99.90;;;;;;10408996;28;19925;-66
2021/01/09 09:21:42;;;;;;;;;;;4.50;99.90;;;;;;10407788;28;19925;-66
2021/01/09 09:26:44;;;;;;;;;;;4.60;99.90;;;;;;10408838;28;20020;-66
2021/01/09 09:31:45;;;;;;;;;;;4.70;99.90;;;;;;10408076;28;19963;-66
2021/01/09 09:36:50;;;;;;;;;;;4.60;99.90;;;;;;10406686;28;19929;-66
2021/01/09 09:41:54;;;;;;;;;;;4.50;99.90;;;;;;10407528;28;19971;-66
2021/01/09 09:46:56;;;;;;;;;;;4.40;99.90;;;;;;10406690;28;20377;-65
2021/01/09 09:52:14;;;;;;;;;;;4.30;99.90;;;;;;10407324;28;20016;-65
2021/01/09 09:57:22;;;;;;;;;;;4.40;99.90;;;;;;10407324;28;19975;-66
2021/01/09 10:02:24;;;;;;;;;;;4.30;99.90;;;;;;10421768;28;20333;-65
2021/01/09 10:07:25;;;;;;;;;;;4.40;99.90;;;;;;10406888;28;19925;-66
2021/01/09 10:12:26;;;;;;;;;;;4.50;99.90;;;;;;10406919;28;19964;-66
2021/01/09 10:17:28;;;;;;;;;;;4.40;99.90;;;;;;10405173;28;19968;-66
2021/01/09 10:22:29;;;;;;;;;;;4.40;99.90;;;;;;10406500;28;20024;-65
2021/01/09 10:27:30;;;;;;;;;;;4.30;99.90;;;;;;10421695;28;19964;-66
2021/01/09 10:32:32;;;;;;;;;;;4.20;99.90;;;;;;10405662;28;20461;-66
2021/01/09 10:37:33;;;;;;;;;;;4.10;99.90;;;;;;10406086;28;19929;-65
2021/01/09 10:42:35;;;;;;;;;;;4.30;99.90;;;;;;10405349;28;19952;-66
2021/01/09 10:47:37;;;;;;;;;;;4.40;99.90;;;;;;10404807;28;20278;-66
2021/01/09 10:52:40;;;;;;;;;;;4.10;99.90;;;;;;10405663;28;20160;-65
2021/01/09 10:57:41;;;;;;;;;;;4.20;99.90;;;;;;10420704;28;19929;-65
2021/01/09 11:02:42;;;;;;;;;;;4.30;99.90;;;;;;10405276;28;19929;-65
2021/01/09 11:07:44;;;;;;;;;;;4.40;99.90;;;;;;10403802;28;19964;-65
2021/01/09 11:12:45;;;;;;;;;;;4.40;99.90;;;;;;10404904;28;19929;-66
2021/01/09 11:17:46;;;;;;;;;;;4.50;99.90;;;;;;10404810;28;20281;-65
2021/01/09 11:22:48;;;;;;;;;;;4.60;99.90;;;;;;10404985;28;19925;-65
2021/01/09 11:27:49;;;;;;;;;;;4.60;99.90;;;;;;10419962;28;20007;-66
2021/01/09 11:32:51;;;;;;;;;;;4.60;99.90;;;;;;10404210;28;19935;-65
2021/01/09 11:37:54;;;;;;;;;;;4.50;99.90;;;;;;10404575;28;19925;-66
2021/01/09 11:42:55;;;;;;;;;;;4.50;99.90;;;;;;10404616;28;20373;-65
2021/01/09 11:47:57;;;;;;;;;;;4.40;99.90;;;;;;10403779;28;19956;-66
2021/01/09 11:52:58;;;;;;;;;;;4.50;99.90;;;;;;10404620;28;20024;-66
2021/01/09 11:57:59;;;;;;;;;;;4.50;99.90;;;;;;10411953;28;19933;-66
2021/01/09 12:03:01;;;;;;;;;;;4.50;99.90;;;;;;10411730;28;19969;-66
2021/01/09 12:08:03;;;;;;;;;;;4.70;99.90;;;;;;10410744;28;20308;-65
2021/01/09 12:13:06;;;;;;;;;;;4.90;99.90;;;;;;10411702;28;19971;-66
2021/01/09 12:18:07;;;;;;;;;;;5.20;99.90;;;;;;10411378;28;19971;-65
2021/01/09 12:23:09;;;;;;;;;;;5.10;99.90;;;;;;10411707;28;19926;-66
2021/01/09 12:28:11;;;;;;;;;;;5.10;99.90;;;;;;10411286;28;20369;-65
2021/01/09 12:33:12;;;;;;;;;;;5.00;99.90;;;;;;10410505;28;19972;-66
2021/01/09 12:38:13;;;;;;;;;;;4.90;99.90;;;;;;10410508;28;19933;-66
2021/01/09 12:43:15;;;;;;;;;;;4.80;99.90;;;;;;10410053;28;20417;-66
2021/01/09 12:48:18;;;;;;;;;;;4.80;99.90;;;;;;10409487;28;20065;-66
2021/01/09 12:53:19;;;;;;;;;;;4.90;99.90;;;;;;10409966;28;19968;-66
2021/01/09 12:58:20;;;;;;;;;;;5.00;99.90;;;;;;10409788;28;19983;-66
2021/01/09 13:03:21;;;;;;;;;;;5.20;99.90;;;;;;10409620;28;19983;-66
2021/01/09 13:08:23;;;;;;;;;;;5.40;99.90;;;;;;10408458;28;19976;-66
2021/01/09 13:13:25;;;;;;;;;;;5.40;99.90;;;;;;10409157;28;19976;-66
2021/01/09 13:18:26;;;;;;;;;;;5.40;99.90;;;;;;10424125;28;19968;-66
2021/01/09 13:23:27;;;;;;;;;;;5.60;99.90;;;;;;10408382;28;19925;-66
2021/01/09 13:28:29;;;;;;;;;;;5.60;99.90;;;;;;10408500;28;19952;-65
2021/01/09 13:33:31;;;;;;;;;;;5.90;98.70;;;;;;10408368;28;19929;-66
2021/01/09 13:38:32;;;;;;;;;;;5.90;98.40;;;;;;10408342;28;20004;-65
2021/01/09 13:43:35;;;;;;;;;;;6.00;97.90;;;;;;10407667;28;19980;-65
2021/01/09 13:48:36;;;;;;;;;;;5.90;99.90;;;;;;10407727;28;20017;-66
2021/01/09 13:53:38;;;;;;;;;;;5.80;99.90;;;;;;10407380;28;19929;-66
2021/01/09 13:58:39;;;;;;;;;;;5.70;99.90;;;;;;10407974;28;20387;-66
2021/01/09 14:03:40;;;;;;;;;;;5.60;99.90;;;;;;10407303;28;19960;-66
2021/01/09 14:08:42;;;;;;;;;;;5.30;99.90;;;;;;10405462;28;20110;-68
2021/01/09 14:13:44;;;;;;;;;;;5.20;99.90;;;;;;10401560;28;20359;-68
2021/01/09 14:18:57;;;;;;;;;;;5.10;99.90;;;;;;10399908;28;19924;-68
2021/01/09 14:23:58;;;;;;;;;;;5.10;99.90;;;;;;10404625;28;19972;-68
2021/01/09 14:29:00;;;;;;;;;;;5.10;99.90;;;;;;10402333;28;19929;-68
2021/01/09 14:34:04;;;;;;;;;;;5.10;99.90;;;;;;10404381;28;19931;-68
2021/01/09 14:39:25;;;;;;;;;;;5.10;99.90;;;;;;10404245;28;19925;-68
2021/01/09 14:44:27;;;;;;;;;;;5.10;99.90;;;;;;10402912;28;20374;-68
2021/01/09 14:49:29;;;;;;;;;;;5.10;99.90;;;;;;10418746;28;19925;-68
2021/01/09 14:54:30;;;;;;;;;;;5.10;99.90;;;;;;10403796;28;19960;-68
2021/01/09 14:59:32;;;;;;;;;;;4.90;99.90;;;;;;10401873;28;20024;-68
2021/01/09 15:04:33;;;;;;;;;;;4.90;99.90;;;;;;10391775;28;19939;-68
2021/01/09 15:09:35;;;;;;;;;;;4.90;99.90;;;;;;10402994;28;19947;-68
2021/01/09 15:14:36;;;;;;;;;;;4.90;99.90;;;;;;10401836;28;20020;-68
2021/01/09 15:19:38;;;;;;;;;;;4.80;99.90;;;;;;10402970;28;20063;-68
2021/01/09 15:24:39;;;;;;;;;;;4.70;99.90;;;;;;10402304;28;20452;-68
2021/01/09 15:29:41;;;;;;;;;;;4.50;99.90;;;;;;10405085;28;20012;-68
2021/01/09 15:34:43;;;;;;;;;;;4.50;99.90;;;;;;10411529;28;20127;-68
2021/01/09 15:39:45;;;;;;;;;;;4.40;99.90;;;;;;10409813;28;19979;-68
2021/01/09 15:44:52;;;;;;;;;;;4.20;99.90;;;;;;10410872;28;20276;-68
2021/01/09 15:49:53;;;;;;;;;;;4.00;99.90;;;;;;10409984;28;19968;-68
2021/01/09 15:54:55;;;;;;;;;;;3.90;99.90;;;;;;10408496;28;19925;-68
2021/01/09 15:59:57;;;;;;;;;;;3.80;99.90;;;;;;10410081;28;20027;-68
2021/01/09 16:04:58;;;;;;;;;;;3.70;99.90;;;;;;10406284;28;19931;-68
2021/01/09 16:09:59;;;;;;;;;;;3.70;99.90;;;;;;10409280;28;19925;-68
2021/01/09 16:15:01;;;;;;;;;;;3.70;99.90;;;;;;10407157;28;20393;-68
2021/01/09 16:20:02;;;;;;;;;;;3.80;99.90;;;;;;10409749;28;19976;-68
2021/01/09 16:25:04;;;;;;;;;;;3.90;99.90;;;;;;10408701;28;19972;-68
2021/01/09 16:30:05;;;;;;;;;;;3.80;99.90;;;;;;10407860;28;19983;-68
2021/01/09 16:35:07;;;;;;;;;;;3.80;99.90;;;;;;10409238;28;20334;-68
2021/01/09 16:40:08;;;;;;;;;;;3.60;99.90;;;;;;10391676;28;20493;-68
2021/01/09 16:45:10;;;;;;;;;;;3.60;99.90;;;;;;10406112;28;20010;-68
2021/01/09 16:50:13;;;;;;;;;;;3.70;99.90;;;;;;10406676;28;19983;-68
2021/01/09 16:55:16;;;;;;;;;;;3.70;99.90;;;;;;10407480;28;20366;-68
2021/01/09 17:00:18;;;;;;;;;;;3.70;99.90;;;;;;10422477;28;19925;-68
2021/01/09 17:05:20;;;;;;;;;;;3.70;99.90;;;;;;10406469;28;19925;-68
2021/01/09 17:10:22;;;;;;;;;;;3.70;99.90;;;;;;10407738;28;19932;-68
2021/01/09 17:15:24;;;;;;;;;;;3.70;99.90;;;;;;10407327;28;20008;-68
2021/01/09 17:20:25;;;;;;;;;;;3.70;99.90;;;;;;10407504;28;20011;-68
2021/01/09 17:25:26;;;;;;;;;;;3.70;99.90;;;;;;10406782;28;20395;-68
2021/01/09 17:30:28;;;;;;;;;;;3.70;99.90;;;;;;10406940;28;20339;-64
2021/01/09 17:35:30;;;;;;;;;;;3.70;99.90;;;;;;10422840;28;19925;-65
2021/01/09 17:40:31;;;;;;;;;;;3.70;99.90;;;;;;10407371;28;19932;-64
2021/01/09 17:45:33;;;;;;;;;;;3.80;99.90;;;;;;10406931;28;20008;-64
2021/01/09 17:50:34;;;;;;;;;;;3.80;99.90;;;;;;10407339;28;19971;-65
2021/01/09 17:55:38;;;;;;;;;;;3.80;99.90;;;;;;10406609;28;19979;-65
2021/01/09 18:00:39;;;;;;;;;;;3.70;99.90;;;;;;10405920;28;19925;-65
2021/01/09 18:05:40;;;;;;;;;;;3.80;99.90;;;;;;10407093;28;19928;-64
2021/01/09 18:10:42;;;;;;;;;;;3.80;99.90;;;;;;10406776;28;19925;-65
2021/01/09 18:15:45;;;;;;;;;;;3.70;99.90;;;;;;10404793;28;21318;-65
2021/01/09 18:20:47;;;;;;;;;;;3.70;99.90;;;;;;10406362;28;20014;-65
2021/01/09 18:25:48;;;;;;;;;;;3.60;99.90;;;;;;10405983;28;20016;-65
2021/01/09 18:30:49;;;;;;;;;;;3.70;99.90;;;;;;10404115;28;20373;-65
2021/01/09 18:35:51;;;;;;;;;;;3.70;99.90;;;;;;10405473;28;19936;-65
2021/01/09 18:40:52;;;;;;;;;;;3.50;99.90;;;;;;10406423;28;19925;-64
2021/01/09 18:45:54;;;;;;;;;;;3.50;99.90;;;;;;10404207;28;20391;-64
2021/01/09 18:51:15;;;;;;;;;;;3.40;99.90;;;;;;10378160;28;19929;-64
2021/01/09 18:56:18;;;;;;;;;;;3.40;99.90;;;;;;10403388;28;20342;-65
2021/01/09 19:01:19;;;;;;;;;;;3.30;99.90;;;;;;10405122;28;19925;-65
2021/01/09 19:06:21;;;;;;;;;;;3.40;99.90;;;;;;10402666;28;20020;-65
2021/01/09 19:11:42;;;;;;;;;;;3.30;99.90;;;;;;10401221;28;19925;-65
2021/01/09 19:16:45;;;;;;;;;;;3.30;99.90;;;;;;10402063;28;19935;-65
2021/01/09 19:21:46;;;;;;;;;;;3.30;99.90;;;;;;10402005;28;19929;-64
2021/01/09 19:26:49;;;;;;;;;;;3.30;99.90;;;;;;10402502;28;19983;-65
2021/01/09 19:31:53;;;;;;;;;;;3.30;99.90;;;;;;10404018;28;19986;-65
2021/01/09 19:36:55;;;;;;;;;;;3.30;99.90;;;;;;10400622;28;19935;-65
2021/01/09 19:41:58;;;;;;;;;;;3.20;99.90;;;;;;10417258;28;20280;-65
2021/01/09 19:46:59;;;;;;;;;;;3.20;99.90;;;;;;10401478;28;19929;-65
2021/01/09 19:52:02;;;;;;;;;;;3.20;99.90;;;;;;10401934;28;19932;-65
2021/01/09 19:57:06;;;;;;;;;;;3.20;99.90;;;;;;10401878;28;19968;-65
2021/01/09 20:02:10;;;;;;;;;;;3.10;99.90;;;;;;10402952;28;20320;-65
2021/01/09 20:07:12;;;;;;;;;;;3.00;99.90;;;;;;10403796;28;19935;-65
2021/01/09 20:12:13;;;;;;;;;;;3.00;99.90;;;;;;10403415;28;20290;-65
2021/01/09 20:17:15;;;;;;;;;;;3.00;99.90;;;;;;10407323;28;20357;-65
2021/01/09 20:22:17;;;;;;;;;;;3.00;99.90;;;;;;10410078;28;19932;-64
2021/01/09 20:27:18;;;;;;;;;;;3.00;99.90;;;;;;10409574;28;20011;-65
2021/01/09 20:32:19;;;;;;;;;;;2.90;99.90;;;;;;10409188;28;19980;-64
2021/01/09 20:37:21;;;;;;;;;;;2.80;99.90;;;;;;10409305;28;19979;-64
2021/01/09 20:42:22;;;;;;;;;;;2.80;99.90;;;;;;10409200;28;20010;-64
2021/01/09 20:47:23;;;;;;;;;;;2.70;99.90;;;;;;10408451;28;19929;-64
2021/01/09 20:52:25;;;;;;;;;;;2.70;99.90;;;;;;10409215;28;19925;-64
2021/01/09 20:57:26;;;;;;;;;;;2.60;99.90;;;;;;10408876;28;20028;-64
2021/01/09 21:02:31;;;;;;;;;;;2.50;99.90;;;;;;10407552;28;19929;-65
2021/01/09 21:07:32;;;;;;;;;;;2.40;99.90;;;;;;10408222;28;19931;-64
2021/01/09 21:12:33;;;;;;;;;;;2.50;99.90;;;;;;10408240;28;19979;-64
2021/01/09 21:17:40;;;;;;;;;;;2.40;99.90;;;;;;10407749;28;19929;-64
2021/01/09 21:22:41;;;;;;;;;;;2.50;99.90;;;;;;10407778;28;19952;-64
2021/01/09 21:27:43;;;;;;;;;;;2.50;99.90;;;;;;10407177;28;19925;-64
2021/01/09 21:32:44;;;;;;;;;;;2.40;99.90;;;;;;10407933;28;19972;-64
2021/01/09 21:37:45;;;;;;;;;;;2.30;99.90;;;;;;10408334;28;19933;-64
2021/01/09 21:42:47;;;;;;;;;;;2.20;99.90;;;;;;10406412;28;20245;-64
2021/01/09 21:47:48;;;;;;;;;;;2.20;99.90;;;;;;10405899;28;20012;-65
2021/01/09 21:52:54;;;;;;;;;;;2.30;99.90;;;;;;10422713;28;20016;-64
2021/01/09 21:57:56;;;;;;;;;;;2.40;99.90;;;;;;10407314;28;19964;-64
2021/01/09 22:02:59;;;;;;;;;;;2.30;99.90;;;;;;10406602;28;19925;-64
2021/01/09 22:08:00;;;;;;;;;;;2.30;99.90;;;;;;10406678;28;19952;-64
2021/01/09 22:13:02;;;;;;;;;;;2.30;99.90;;;;;;10406464;28;19925;-64
2021/01/09 22:18:03;;;;;;;;;;;2.30;99.90;;;;;;10405708;28;20266;-64
2021/01/09 22:23:04;;;;;;;;;;;2.40;99.90;;;;;;10406214;28;20392;-64
2021/01/09 22:28:06;;;;;;;;;;;2.40;99.90;;;;;;10404948;28;19925;-64
2021/01/09 22:33:07;;;;;;;;;;;2.40;99.90;;;;;;10405632;28;19960;-64
2021/01/09 22:38:08;;;;;;;;;;;2.50;99.90;;;;;;10405195;28;19969;-64
2021/01/09 22:43:09;;;;;;;;;;;2.50;99.90;;;;;;10404724;28;20361;-64
2021/01/09 22:48:12;;;;;;;;;;;2.50;99.90;;;;;;10405114;28;20324;-64
2021/01/09 22:53:13;;;;;;;;;;;2.50;99.90;;;;;;10405532;28;20036;-64
2021/01/09 22:58:14;;;;;;;;;;;2.50;99.90;;;;;;10405049;28;20025;-64
2021/01/09 23:03:16;;;;;;;;;;;2.50;99.90;;;;;;10404634;28;19980;-64
2021/01/09 23:08:17;;;;;;;;;;;2.50;99.90;;;;;;10404976;28;19948;-64
2021/01/09 23:13:18;;;;;;;;;;;2.50;99.90;;;;;;10405334;28;20012;-64
2021/01/09 23:18:20;;;;;;;;;;;2.40;99.90;;;;;;10403888;28;19925;-64
2021/01/09 23:23:21;;;;;;;;;;;2.40;99.90;;;;;;10404810;28;20007;-64
2021/01/09 23:28:23;;;;;;;;;;;2.50;99.90;;;;;;10434750;28;20385;-64
2021/01/09 23:33:24;;;;;;;;;;;2.50;99.90;;;;;;10403406;28;19949;-64
2021/01/09 23:38:25;;;;;;;;;;;2.60;99.90;;;;;;10404225;28;19964;-64
2021/01/09 23:43:27;;;;;;;;;;;2.60;99.90;;;;;;10404075;28;20450;-64
2021/01/09 23:48:28;;;;;;;;;;;2.60;99.90;;;;;;10403236;28;20342;-65
2021/01/09 23:53:29;;;;;;;;;;;2.60;99.90;;;;;;10411284;28;19994;-64
2021/01/09 23:58:31;;;;;;;;;;;2.60;99.90;;;;;;10411979;28;19932;-64
